sensor_id;sensor_type;location;lat;lon;timestamp;P1;durP1;ratioP1;P2;durP2;ratioP2
5646;SDS011;2845;48.626;9.362;2024-01-15T00:02:14;16.43;;;5.17;;
5646;SDS011;2845;48.626;9.362;2024-01-15T00:04:48;16.27;;;6.10;;
5646;SDS011;2845;48.626;9.362;2024-01-15T00:07:22;13.30;;;4.53;;
5646;SDS011;2845;48.626;9.362;2024-01-15T00:09:57;19.23;;;6.10;;
5646;SDS011;2845;48.626;9.362;2024-01-15T00:12:32;17.73;;;5.23;;
5646;SDS011;2845;48.626;9.362;2024-01-15T00:15:06;15.17;;;4.47;;
5646;SDS011;2845;48.626;9.362;2024-01-15T00:17:42;11.40;;;4.37;;
5646;SDS011;2845;48.626;9.362;2024-01-15T00:20:17;14.80;;;4.50;;
5646;SDS011;2845;48.626;9.362;2024-01-15T00:22:51;12.30;;;3.87;;
5646;SDS011;2845;48.626;9.362;2024-01-15T00:25:25;9.63;;;4.30;;
5646;SDS011;2845;48.626;9.362;2024-01-15T00:28:00;9.80;;;4.07;;
5646;SDS011;2845;48.626;9.362;2024-01-15T00:30:34;10.80;;;3.57;;
5646;SDS011;2845;48.626;9.362;2024-01-15T00:33:08;13.33;;;4.20;;
5646;SDS011;2845;48.626;9.362;2024-01-15T00:35:44;12.87;;;3.80;;
5646;SDS011;2845;48.626;9.362;2024-01-15T00:38:18;15.07;;;3.83;;
5646;SDS011;2845;48.626;9.362;2024-01-15T00:40:53;12.17;;;3.63;;
5646;SDS011;2845;48.626;9.362;2024-01-15T00:43:29;9.07;;;3.50;;
5646;SDS011;2845;48.626;9.362;2024-01-15T00:46:03;11.40;;;3.57;;
5646;SDS011;2845;48.626;9.362;2024-01-15T00:48:37;12.70;;;3.83;;
5646;SDS011;2845;48.626;9.362;2024-01-15T00:51:12;11.20;;;3.43;;
5646;SDS011;2845;48.626;9.362;2024-01-15T00:53:46;13.30;;;4.73;;
5646;SDS011;2845;48.626;9.362;2024-01-15T00:56:20;9.77;;;3.30;;
5646;SDS011;2845;48.626;9.362;2024-01-15T00:58:55;9.23;;;3.53;;
5646;SDS011;2845;48.626;9.362;2024-01-15T01:01:30;12.43;;;3.63;;
5646;SDS011;2845;48.626;9.362;2024-01-15T01:04:04;9.07;;;2.90;;
5646;SDS011;2845;48.626;9.362;2024-01-15T01:06:38;14.27;;;4.13;;
5646;SDS011;2845;48.626;9.362;2024-01-15T01:09:12;14.97;;;3.03;;
5646;SDS011;2845;48.626;9.362;2024-01-15T01:11:46;9.50;;;3.90;;
5646;SDS011;2845;48.626;9.362;2024-01-15T01:14:22;7.03;;;2.67;;
5646;SDS011;2845;48.626;9.362;2024-01-15T01:16:56;10.37;;;3.67;;
5646;SDS011;2845;48.626;9.362;2024-01-15T01:19:30;9.27;;;3.13;;
5646;SDS011;2845;48.626;9.362;2024-01-15T01:22:04;9.47;;;3.47;;
5646;SDS011;2845;48.626;9.362;2024-01-15T01:24:38;10.20;;;3.10;;
5646;SDS011;2845;48.626;9.362;2024-01-15T01:27:12;12.17;;;3.43;;
5646;SDS011;2845;48.626;9.362;2024-01-15T01:29:48;11.20;;;3.97;;
5646;SDS011;2845;48.626;9.362;2024-01-15T01:32:22;12.67;;;3.83;;
5646;SDS011;2845;48.626;9.362;2024-01-15T01:34:56;11.53;;;3.80;;
5646;SDS011;2845;48.626;9.362;2024-01-15T01:37:30;11.77;;;3.53;;
5646;SDS011;2845;48.626;9.362;2024-01-15T01:40:07;9.13;;;3.03;;
5646;SDS011;2845;48.626;9.362;2024-01-15T01:42:42;11.37;;;3.70;;
5646;SDS011;2845;48.626;9.362;2024-01-15T01:45:18;9.57;;;3.00;;
5646;SDS011;2845;48.626;9.362;2024-01-15T01:47:52;13.37;;;4.23;;
5646;SDS011;2845;48.626;9.362;2024-01-15T01:50:27;10.87;;;3.70;;
5646;SDS011;2845;48.626;9.362;2024-01-15T01:53:02;9.43;;;2.77;;
5646;SDS011;2845;48.626;9.362;2024-01-15T01:55:37;10.70;;;3.47;;
5646;SDS011;2845;48.626;9.362;2024-01-15T01:58:12;11.20;;;3.60;;
5646;SDS011;2845;48.626;9.362;2024-01-15T02:00:47;7.90;;;2.90;;
5646;SDS011;2845;48.626;9.362;2024-01-15T02:03:22;7.27;;;2.93;;
5646;SDS011;2845;48.626;9.362;2024-01-15T02:05:57;9.57;;;3.60;;
5646;SDS011;2845;48.626;9.362;2024-01-15T02:08:32;11.87;;;3.43;;
5646;SDS011;2845;48.626;9.362;2024-01-15T02:11:07;9.70;;;3.63;;
5646;SDS011;2845;48.626;9.362;2024-01-15T02:13:41;8.93;;;3.23;;
5646;SDS011;2845;48.626;9.362;2024-01-15T02:16:16;12.37;;;3.57;;
5646;SDS011;2845;48.626;9.362;2024-01-15T02:18:50;11.17;;;3.57;;
5646;SDS011;2845;48.626;9.362;2024-01-15T02:21:25;11.40;;;3.30;;
5646;SDS011;2845;48.626;9.362;2024-01-15T02:24:02;8.07;;;3.00;;
5646;SDS011;2845;48.626;9.362;2024-01-15T02:26:37;8.07;;;2.67;;
5646;SDS011;2845;48.626;9.362;2024-01-15T02:29:11;6.17;;;2.50;;
5646;SDS011;2845;48.626;9.362;2024-01-15T02:31:47;9.93;;;2.83;;
5646;SDS011;2845;48.626;9.362;2024-01-15T02:34:21;9.00;;;3.60;;
5646;SDS011;2845;48.626;9.362;2024-01-15T02:36:55;7.10;;;2.40;;
5646;SDS011;2845;48.626;9.362;2024-01-15T02:39:31;7.93;;;2.87;;
5646;SDS011;2845;48.626;9.362;2024-01-15T02:42:05;9.73;;;2.90;;
5646;SDS011;2845;48.626;9.362;2024-01-15T02:44:39;9.40;;;2.70;;
5646;SDS011;2845;48.626;9.362;2024-01-15T02:47:13;10.10;;;3.30;;
5646;SDS011;2845;48.626;9.362;2024-01-15T02:49:48;5.70;;;2.20;;
5646;SDS011;2845;48.626;9.362;2024-01-15T02:52:22;13.87;;;4.17;;
5646;SDS011;2845;48.626;9.362;2024-01-15T02:54:57;10.40;;;3.33;;
5646;SDS011;2845;48.626;9.362;2024-01-15T02:57:31;6.90;;;2.53;;
5646;SDS011;2845;48.626;9.362;2024-01-15T03:00:06;12.93;;;3.03;;
5646;SDS011;2845;48.626;9.362;2024-01-15T03:02:45;8.10;;;2.73;;
5646;SDS011;2845;48.626;9.362;2024-01-15T03:05:20;7.87;;;2.87;;
5646;SDS011;2845;48.626;9.362;2024-01-15T03:07:54;7.20;;;2.93;;
5646;SDS011;2845;48.626;9.362;2024-01-15T03:10:30;7.70;;;3.53;;
5646;SDS011;2845;48.626;9.362;2024-01-15T03:13:04;8.70;;;2.90;;
5646;SDS011;2845;48.626;9.362;2024-01-15T03:15:38;11.77;;;3.07;;
5646;SDS011;2845;48.626;9.362;2024-01-15T03:18:12;7.63;;;2.70;;
5646;SDS011;2845;48.626;9.362;2024-01-15T03:20:47;10.40;;;3.10;;
5646;SDS011;2845;48.626;9.362;2024-01-15T03:23:21;11.33;;;2.53;;
5646;SDS011;2845;48.626;9.362;2024-01-15T03:25:56;7.40;;;2.77;;
5646;SDS011;2845;48.626;9.362;2024-01-15T03:28:30;9.90;;;3.17;;
5646;SDS011;2845;48.626;9.362;2024-01-15T03:31:04;8.30;;;2.37;;
5646;SDS011;2845;48.626;9.362;2024-01-15T03:33:39;9.37;;;2.70;;
5646;SDS011;2845;48.626;9.362;2024-01-15T03:36:13;9.30;;;2.40;;
5646;SDS011;2845;48.626;9.362;2024-01-15T03:38:47;10.63;;;3.17;;
5646;SDS011;2845;48.626;9.362;2024-01-15T03:41:23;7.23;;;2.43;;
5646;SDS011;2845;48.626;9.362;2024-01-15T03:43:57;9.57;;;2.60;;
5646;SDS011;2845;48.626;9.362;2024-01-15T03:46:31;9.23;;;2.73;;
5646;SDS011;2845;48.626;9.362;2024-01-15T03:49:06;8.17;;;3.07;;
5646;SDS011;2845;48.626;9.362;2024-01-15T03:51:40;6.40;;;2.73;;
5646;SDS011;2845;48.626;9.362;2024-01-15T03:54:14;12.20;;;2.40;;
5646;SDS011;2845;48.626;9.362;2024-01-15T03:56:53;7.67;;;2.60;;
5646;SDS011;2845;48.626;9.362;2024-01-15T03:59:27;9.10;;;2.50;;
5646;SDS011;2845;48.626;9.362;2024-01-15T04:02:01;6.10;;;2.60;;
5646;SDS011;2845;48.626;9.362;2024-01-15T04:04:36;11.93;;;2.77;;
5646;SDS011;2845;48.626;9.362;2024-01-15T04:07:14;9.17;;;2.67;;
5646;SDS011;2845;48.626;9.362;2024-01-15T04:09:48;9.70;;;2.70;;
5646;SDS011;2845;48.626;9.362;2024-01-15T04:12:23;11.50;;;3.67;;
5646;SDS011;2845;48.626;9.362;2024-01-15T04:14:58;8.53;;;2.57;;
5646;SDS011;2845;48.626;9.362;2024-01-15T04:17:32;9.13;;;2.57;;
5646;SDS011;2845;48.626;9.362;2024-01-15T04:20:06;8.70;;;2.87;;
5646;SDS011;2845;48.626;9.362;2024-01-15T04:22:41;10.10;;;3.20;;
5646;SDS011;2845;48.626;9.362;2024-01-15T04:25:17;9.57;;;2.70;;
5646;SDS011;2845;48.626;9.362;2024-01-15T04:27:52;9.20;;;3.10;;
5646;SDS011;2845;48.626;9.362;2024-01-15T04:30:26;7.37;;;2.33;;
5646;SDS011;2845;48.626;9.362;2024-01-15T04:33:01;6.90;;;2.47;;
5646;SDS011;2845;48.626;9.362;2024-01-15T04:35:35;11.47;;;2.53;;
5646;SDS011;2845;48.626;9.362;2024-01-15T04:38:10;9.97;;;2.20;;
5646;SDS011;2845;48.626;9.362;2024-01-15T04:40:45;10.37;;;2.97;;
5646;SDS011;2845;48.626;9.362;2024-01-15T04:43:20;12.17;;;2.60;;
5646;SDS011;2845;48.626;9.362;2024-01-15T04:45:54;6.97;;;2.67;;
5646;SDS011;2845;48.626;9.362;2024-01-15T04:48:29;9.47;;;2.93;;
5646;SDS011;2845;48.626;9.362;2024-01-15T04:51:04;10.80;;;2.30;;
5646;SDS011;2845;48.626;9.362;2024-01-15T04:53:39;7.37;;;2.50;;
5646;SDS011;2845;48.626;9.362;2024-01-15T04:56:13;8.87;;;2.60;;
5646;SDS011;2845;48.626;9.362;2024-01-15T04:58:48;10.50;;;3.10;;
5646;SDS011;2845;48.626;9.362;2024-01-15T05:01:22;8.10;;;3.10;;
5646;SDS011;2845;48.626;9.362;2024-01-15T05:03:56;10.93;;;3.40;;
5646;SDS011;2845;48.626;9.362;2024-01-15T05:06:31;10.00;;;3.43;;
5646;SDS011;2845;48.626;9.362;2024-01-15T05:09:06;13.43;;;3.40;;
5646;SDS011;2845;48.626;9.362;2024-01-15T05:11:40;7.07;;;2.70;;
5646;SDS011;2845;48.626;9.362;2024-01-15T05:14:15;9.80;;;2.80;;
5646;SDS011;2845;48.626;9.362;2024-01-15T05:16:49;11.47;;;3.17;;
5646;SDS011;2845;48.626;9.362;2024-01-15T05:19:23;7.90;;;2.80;;
5646;SDS011;2845;48.626;9.362;2024-01-15T05:21:58;10.70;;;2.57;;
5646;SDS011;2845;48.626;9.362;2024-01-15T05:24:32;9.83;;;4.20;;
5646;SDS011;2845;48.626;9.362;2024-01-15T05:27:06;10.77;;;3.03;;
5646;SDS011;2845;48.626;9.362;2024-01-15T05:29:41;9.93;;;3.23;;
5646;SDS011;2845;48.626;9.362;2024-01-15T05:32:15;12.23;;;3.50;;
5646;SDS011;2845;48.626;9.362;2024-01-15T05:34:50;11.37;;;3.77;;
5646;SDS011;2845;48.626;9.362;2024-01-15T05:37:24;11.97;;;3.93;;
5646;SDS011;2845;48.626;9.362;2024-01-15T05:39:58;10.40;;;3.23;;
5646;SDS011;2845;48.626;9.362;2024-01-15T05:42:32;8.63;;;3.17;;
5646;SDS011;2845;48.626;9.362;2024-01-15T05:45:08;10.20;;;3.23;;
5646;SDS011;2845;48.626;9.362;2024-01-15T05:47:42;6.93;;;2.63;;
5646;SDS011;2845;48.626;9.362;2024-01-15T05:50:17;9.10;;;3.07;;
5646;SDS011;2845;48.626;9.362;2024-01-15T05:52:51;12.40;;;4.07;;
5646;SDS011;2845;48.626;9.362;2024-01-15T05:55:25;10.97;;;3.10;;
5646;SDS011;2845;48.626;9.362;2024-01-15T05:57:59;13.63;;;3.57;;
5646;SDS011;2845;48.626;9.362;2024-01-15T06:00:35;13.00;;;2.97;;
5646;SDS011;2845;48.626;9.362;2024-01-15T06:03:10;11.23;;;2.93;;
5646;SDS011;2845;48.626;9.362;2024-01-15T06:05:44;8.97;;;3.37;;
5646;SDS011;2845;48.626;9.362;2024-01-15T06:08:19;11.10;;;3.63;;
5646;SDS011;2845;48.626;9.362;2024-01-15T06:10:53;11.07;;;3.63;;
5646;SDS011;2845;48.626;9.362;2024-01-15T06:13:33;12.60;;;3.10;;
5646;SDS011;2845;48.626;9.362;2024-01-15T06:16:13;9.13;;;3.00;;
5646;SDS011;2845;48.626;9.362;2024-01-15T06:18:49;7.67;;;2.60;;
5646;SDS011;2845;48.626;9.362;2024-01-15T06:21:23;6.23;;;2.27;;
5646;SDS011;2845;48.626;9.362;2024-01-15T06:23:57;10.80;;;3.20;;
5646;SDS011;2845;48.626;9.362;2024-01-15T06:26:31;8.77;;;2.47;;
5646;SDS011;2845;48.626;9.362;2024-01-15T06:29:05;12.13;;;3.57;;
5646;SDS011;2845;48.626;9.362;2024-01-15T06:31:41;8.23;;;3.00;;
5646;SDS011;2845;48.626;9.362;2024-01-15T06:34:16;9.47;;;2.87;;
5646;SDS011;2845;48.626;9.362;2024-01-15T06:36:50;8.00;;;3.20;;
5646;SDS011;2845;48.626;9.362;2024-01-15T06:39:25;7.97;;;2.70;;
5646;SDS011;2845;48.626;9.362;2024-01-15T06:42:00;8.57;;;3.07;;
5646;SDS011;2845;48.626;9.362;2024-01-15T06:44:34;8.07;;;2.90;;
5646;SDS011;2845;48.626;9.362;2024-01-15T06:47:09;12.63;;;3.00;;
5646;SDS011;2845;48.626;9.362;2024-01-15T06:49:43;11.93;;;3.50;;
5646;SDS011;2845;48.626;9.362;2024-01-15T06:52:18;7.77;;;2.83;;
5646;SDS011;2845;48.626;9.362;2024-01-15T06:54:52;9.57;;;2.97;;
5646;SDS011;2845;48.626;9.362;2024-01-15T06:57:26;8.20;;;3.03;;
5646;SDS011;2845;48.626;9.362;2024-01-15T07:00:00;7.83;;;3.20;;
5646;SDS011;2845;48.626;9.362;2024-01-15T07:02:38;7.60;;;2.83;;
5646;SDS011;2845;48.626;9.362;2024-01-15T07:05:12;8.77;;;3.10;;
5646;SDS011;2845;48.626;9.362;2024-01-15T07:07:47;7.67;;;2.50;;
5646;SDS011;2845;48.626;9.362;2024-01-15T07:10:21;7.77;;;2.53;;
5646;SDS011;2845;48.626;9.362;2024-01-15T07:12:55;7.80;;;3.53;;
5646;SDS011;2845;48.626;9.362;2024-01-15T07:15:29;8.47;;;2.77;;
5646;SDS011;2845;48.626;9.362;2024-01-15T07:18:05;6.40;;;2.63;;
5646;SDS011;2845;48.626;9.362;2024-01-15T07:20:39;9.43;;;2.67;;
5646;SDS011;2845;48.626;9.362;2024-01-15T07:23:13;9.40;;;2.97;;
5646;SDS011;2845;48.626;9.362;2024-01-15T07:25:48;6.17;;;2.80;;
5646;SDS011;2845;48.626;9.362;2024-01-15T07:28:22;6.50;;;2.60;;
5646;SDS011;2845;48.626;9.362;2024-01-15T07:30:56;8.27;;;2.67;;
5646;SDS011;2845;48.626;9.362;2024-01-15T07:33:32;6.93;;;2.57;;
5646;SDS011;2845;48.626;9.362;2024-01-15T07:36:06;8.07;;;2.70;;
5646;SDS011;2845;48.626;9.362;2024-01-15T07:38:41;8.50;;;2.40;;
5646;SDS011;2845;48.626;9.362;2024-01-15T07:41:15;6.90;;;2.03;;
5646;SDS011;2845;48.626;9.362;2024-01-15T07:43:49;6.53;;;2.30;;
5646;SDS011;2845;48.626;9.362;2024-01-15T07:46:23;7.97;;;2.60;;
5646;SDS011;2845;48.626;9.362;2024-01-15T07:48:59;6.47;;;2.03;;
5646;SDS011;2845;48.626;9.362;2024-01-15T07:51:33;7.57;;;2.57;;
5646;SDS011;2845;48.626;9.362;2024-01-15T07:54:07;8.07;;;2.50;;
5646;SDS011;2845;48.626;9.362;2024-01-15T07:56:53;7.33;;;3.13;;
5646;SDS011;2845;48.626;9.362;2024-01-15T07:59:29;9.13;;;2.47;;
5646;SDS011;2845;48.626;9.362;2024-01-15T08:02:03;7.37;;;2.80;;
5646;SDS011;2845;48.626;9.362;2024-01-15T08:04:39;5.27;;;2.00;;
5646;SDS011;2845;48.626;9.362;2024-01-15T08:07:13;7.60;;;2.80;;
5646;SDS011;2845;48.626;9.362;2024-01-15T08:09:47;10.07;;;2.70;;
5646;SDS011;2845;48.626;9.362;2024-01-15T08:12:21;11.60;;;2.97;;
5646;SDS011;2845;48.626;9.362;2024-01-15T08:14:56;12.77;;;2.93;;
5646;SDS011;2845;48.626;9.362;2024-01-15T08:17:30;10.00;;;3.10;;
5646;SDS011;2845;48.626;9.362;2024-01-15T08:20:06;8.47;;;2.93;;
5646;SDS011;2845;48.626;9.362;2024-01-15T08:22:42;7.63;;;3.10;;
5646;SDS011;2845;48.626;9.362;2024-01-15T08:25:16;9.03;;;3.20;;
5646;SDS011;2845;48.626;9.362;2024-01-15T08:27:50;9.30;;;2.83;;
5646;SDS011;2845;48.626;9.362;2024-01-15T08:30:25;7.73;;;2.97;;
5646;SDS011;2845;48.626;9.362;2024-01-15T08:33:00;6.33;;;2.37;;
5646;SDS011;2845;48.626;9.362;2024-01-15T08:35:44;6.93;;;2.53;;
5646;SDS011;2845;48.626;9.362;2024-01-15T08:38:18;5.53;;;1.97;;
5646;SDS011;2845;48.626;9.362;2024-01-15T08:40:52;7.77;;;2.03;;
5646;SDS011;2845;48.626;9.362;2024-01-15T08:43:29;6.80;;;2.27;;
5646;SDS011;2845;48.626;9.362;2024-01-15T08:46:03;8.37;;;2.73;;
5646;SDS011;2845;48.626;9.362;2024-01-15T08:48:37;7.43;;;2.40;;
5646;SDS011;2845;48.626;9.362;2024-01-15T08:51:13;9.00;;;2.50;;
5646;SDS011;2845;48.626;9.362;2024-01-15T08:53:47;6.53;;;2.30;;
5646;SDS011;2845;48.626;9.362;2024-01-15T08:56:21;5.97;;;2.37;;
5646;SDS011;2845;48.626;9.362;2024-01-15T08:58:56;6.73;;;2.50;;
5646;SDS011;2845;48.626;9.362;2024-01-15T09:01:30;5.47;;;1.70;;
5646;SDS011;2845;48.626;9.362;2024-01-15T09:04:04;10.63;;;2.50;;
5646;SDS011;2845;48.626;9.362;2024-01-15T09:06:39;6.43;;;2.13;;
5646;SDS011;2845;48.626;9.362;2024-01-15T09:09:14;4.33;;;1.67;;
5646;SDS011;2845;48.626;9.362;2024-01-15T09:11:48;9.13;;;2.43;;
5646;SDS011;2845;48.626;9.362;2024-01-15T09:14:22;6.63;;;2.40;;
5646;SDS011;2845;48.626;9.362;2024-01-15T09:17:08;9.73;;;2.77;;
5646;SDS011;2845;48.626;9.362;2024-01-15T09:19:42;5.13;;;2.03;;
5646;SDS011;2845;48.626;9.362;2024-01-15T09:22:18;5.13;;;1.87;;
5646;SDS011;2845;48.626;9.362;2024-01-15T09:24:52;5.97;;;2.00;;
5646;SDS011;2845;48.626;9.362;2024-01-15T09:27:26;3.50;;;1.63;;
5646;SDS011;2845;48.626;9.362;2024-01-15T09:30:01;5.57;;;1.70;;
5646;SDS011;2845;48.626;9.362;2024-01-15T09:32:36;6.37;;;1.43;;
5646;SDS011;2845;48.626;9.362;2024-01-15T09:35:10;3.13;;;1.37;;
5646;SDS011;2845;48.626;9.362;2024-01-15T09:37:45;4.33;;;1.53;;
5646;SDS011;2845;48.626;9.362;2024-01-15T09:40:20;3.80;;;1.20;;
5646;SDS011;2845;48.626;9.362;2024-01-15T09:42:55;4.93;;;1.47;;
5646;SDS011;2845;48.626;9.362;2024-01-15T09:45:29;5.40;;;1.73;;
5646;SDS011;2845;48.626;9.362;2024-01-15T09:48:04;6.17;;;1.60;;
5646;SDS011;2845;48.626;9.362;2024-01-15T09:50:39;3.57;;;1.37;;
5646;SDS011;2845;48.626;9.362;2024-01-15T09:53:14;2.23;;;1.00;;
5646;SDS011;2845;48.626;9.362;2024-01-15T09:55:49;4.60;;;1.30;;
5646;SDS011;2845;48.626;9.362;2024-01-15T09:58:24;3.87;;;1.43;;
5646;SDS011;2845;48.626;9.362;2024-01-15T10:00:58;6.47;;;1.30;;
5646;SDS011;2845;48.626;9.362;2024-01-15T10:03:38;5.80;;;1.17;;
5646;SDS011;2845;48.626;9.362;2024-01-15T10:06:14;4.47;;;1.67;;
5646;SDS011;2845;48.626;9.362;2024-01-15T10:08:56;8.95;;;1.92;;
5646;SDS011;2845;48.626;9.362;2024-01-15T10:11:31;3.13;;;1.40;;
5646;SDS011;2845;48.626;9.362;2024-01-15T10:14:06;5.60;;;1.53;;
5646;SDS011;2845;48.626;9.362;2024-01-15T10:16:41;4.20;;;1.27;;
5646;SDS011;2845;48.626;9.362;2024-01-15T10:19:16;5.97;;;1.30;;
5646;SDS011;2845;48.626;9.362;2024-01-15T10:21:51;5.77;;;1.80;;
5646;SDS011;2845;48.626;9.362;2024-01-15T10:24:26;4.63;;;1.30;;
5646;SDS011;2845;48.626;9.362;2024-01-15T10:27:04;3.40;;;1.07;;
5646;SDS011;2845;48.626;9.362;2024-01-15T10:29:40;3.57;;;1.40;;
5646;SDS011;2845;48.626;9.362;2024-01-15T10:32:15;5.20;;;1.43;;
5646;SDS011;2845;48.626;9.362;2024-01-15T10:34:50;4.33;;;1.00;;
5646;SDS011;2845;48.626;9.362;2024-01-15T10:37:26;8.33;;;1.17;;
5646;SDS011;2845;48.626;9.362;2024-01-15T10:40:03;3.33;;;1.07;;
5646;SDS011;2845;48.626;9.362;2024-01-15T10:42:38;2.83;;;0.90;;
5646;SDS011;2845;48.626;9.362;2024-01-15T10:45:13;4.07;;;1.33;;
5646;SDS011;2845;48.626;9.362;2024-01-15T10:47:48;3.92;;;0.90;;
5646;SDS011;2845;48.626;9.362;2024-01-15T10:50:22;2.40;;;0.70;;
5646;SDS011;2845;48.626;9.362;2024-01-15T10:52:56;2.63;;;0.80;;
5646;SDS011;2845;48.626;9.362;2024-01-15T10:55:32;3.35;;;1.02;;
5646;SDS011;2845;48.626;9.362;2024-01-15T10:58:08;3.53;;;0.87;;
5646;SDS011;2845;48.626;9.362;2024-01-15T11:00:43;2.40;;;0.93;;
5646;SDS011;2845;48.626;9.362;2024-01-15T11:03:17;5.93;;;0.80;;
5646;SDS011;2845;48.626;9.362;2024-01-15T11:05:53;1.55;;;0.60;;
5646;SDS011;2845;48.626;9.362;2024-01-15T11:08:27;1.63;;;0.70;;
5646;SDS011;2845;48.626;9.362;2024-01-15T11:11:04;3.47;;;0.83;;
5646;SDS011;2845;48.626;9.362;2024-01-15T11:13:40;2.63;;;0.80;;
5646;SDS011;2845;48.626;9.362;2024-01-15T11:16:16;2.53;;;0.80;;
5646;SDS011;2845;48.626;9.362;2024-01-15T11:19:01;2.63;;;0.77;;
5646;SDS011;2845;48.626;9.362;2024-01-15T11:21:41;2.83;;;0.77;;
5646;SDS011;2845;48.626;9.362;2024-01-15T11:24:33;3.47;;;1.30;;
5646;SDS011;2845;48.626;9.362;2024-01-15T11:27:10;2.43;;;0.77;;
5646;SDS011;2845;48.626;9.362;2024-01-15T11:29:45;3.63;;;1.10;;
5646;SDS011;2845;48.626;9.362;2024-01-15T11:32:21;2.00;;;0.50;;
5646;SDS011;2845;48.626;9.362;2024-01-15T11:35:08;2.37;;;0.87;;
5646;SDS011;2845;48.626;9.362;2024-01-15T11:37:58;2.17;;;0.70;;
5646;SDS011;2845;48.626;9.362;2024-01-15T11:40:37;3.97;;;0.80;;
5646;SDS011;2845;48.626;9.362;2024-01-15T11:43:16;2.30;;;0.80;;
5646;SDS011;2845;48.626;9.362;2024-01-15T11:45:54;3.50;;;1.03;;
5646;SDS011;2845;48.626;9.362;2024-01-15T11:48:28;1.03;;;0.40;;
5646;SDS011;2845;48.626;9.362;2024-01-15T11:51:17;4.07;;;1.00;;
5646;SDS011;2845;48.626;9.362;2024-01-15T11:53:52;2.63;;;0.80;;
5646;SDS011;2845;48.626;9.362;2024-01-15T11:56:30;2.73;;;0.77;;
5646;SDS011;2845;48.626;9.362;2024-01-15T11:59:06;3.03;;;0.87;;
5646;SDS011;2845;48.626;9.362;2024-01-15T12:01:41;3.73;;;1.00;;
5646;SDS011;2845;48.626;9.362;2024-01-15T12:04:15;4.43;;;1.17;;
5646;SDS011;2845;48.626;9.362;2024-01-15T12:06:52;3.43;;;1.10;;
5646;SDS011;2845;48.626;9.362;2024-01-15T12:09:26;3.23;;;0.80;;
5646;SDS011;2845;48.626;9.362;2024-01-15T12:12:02;3.33;;;1.10;;
5646;SDS011;2845;48.626;9.362;2024-01-15T12:14:44;3.07;;;0.60;;
5646;SDS011;2845;48.626;9.362;2024-01-15T12:17:18;3.77;;;0.80;;
5646;SDS011;2845;48.626;9.362;2024-01-15T12:19:52;2.43;;;0.93;;
5646;SDS011;2845;48.626;9.362;2024-01-15T12:22:28;1.93;;;0.90;;
5646;SDS011;2845;48.626;9.362;2024-01-15T12:25:16;3.57;;;1.00;;
5646;SDS011;2845;48.626;9.362;2024-01-15T12:27:50;4.23;;;1.00;;
5646;SDS011;2845;48.626;9.362;2024-01-15T12:30:26;2.23;;;0.97;;
5646;SDS011;2845;48.626;9.362;2024-01-15T12:33:02;4.20;;;1.30;;
5646;SDS011;2845;48.626;9.362;2024-01-15T12:35:37;2.93;;;0.93;;
5646;SDS011;2845;48.626;9.362;2024-01-15T12:38:11;3.17;;;1.17;;
5646;SDS011;2845;48.626;9.362;2024-01-15T12:40:45;5.90;;;1.67;;
5646;SDS011;2845;48.626;9.362;2024-01-15T12:43:19;4.10;;;1.00;;
5646;SDS011;2845;48.626;9.362;2024-01-15T12:45:55;4.60;;;1.20;;
5646;SDS011;2845;48.626;9.362;2024-01-15T12:48:30;4.37;;;1.20;;
5646;SDS011;2845;48.626;9.362;2024-01-15T12:51:05;2.87;;;1.23;;
5646;SDS011;2845;48.626;9.362;2024-01-15T12:53:39;3.90;;;1.07;;
5646;SDS011;2845;48.626;9.362;2024-01-15T12:56:14;7.00;;;1.37;;
5646;SDS011;2845;48.626;9.362;2024-01-15T12:58:48;3.80;;;1.00;;
5646;SDS011;2845;48.626;9.362;2024-01-15T13:01:23;4.33;;;1.53;;
5646;SDS011;2845;48.626;9.362;2024-01-15T13:03:57;2.93;;;1.10;;
5646;SDS011;2845;48.626;9.362;2024-01-15T13:06:32;4.83;;;1.40;;
5646;SDS011;2845;48.626;9.362;2024-01-15T13:09:07;5.60;;;1.20;;
5646;SDS011;2845;48.626;9.362;2024-01-15T13:11:42;2.57;;;1.37;;
5646;SDS011;2845;48.626;9.362;2024-01-15T13:14:17;2.60;;;1.17;;
5646;SDS011;2845;48.626;9.362;2024-01-15T13:16:52;3.20;;;1.37;;
5646;SDS011;2845;48.626;9.362;2024-01-15T13:19:26;3.33;;;1.20;;
5646;SDS011;2845;48.626;9.362;2024-01-15T13:22:01;4.77;;;1.17;;
5646;SDS011;2845;48.626;9.362;2024-01-15T13:24:36;3.43;;;1.40;;
5646;SDS011;2845;48.626;9.362;2024-01-15T13:27:10;4.40;;;1.50;;
5646;SDS011;2845;48.626;9.362;2024-01-15T13:29:44;4.40;;;1.57;;
5646;SDS011;2845;48.626;9.362;2024-01-15T13:32:22;6.30;;;1.67;;
5646;SDS011;2845;48.626;9.362;2024-01-15T13:34:59;3.95;;;1.35;;
5646;SDS011;2845;48.626;9.362;2024-01-15T13:37:34;5.93;;;1.37;;
5646;SDS011;2845;48.626;9.362;2024-01-15T13:40:09;4.37;;;1.37;;
5646;SDS011;2845;48.626;9.362;2024-01-15T13:42:49;4.40;;;1.42;;
5646;SDS011;2845;48.626;9.362;2024-01-15T13:45:25;5.53;;;1.93;;
5646;SDS011;2845;48.626;9.362;2024-01-15T13:48:00;3.80;;;1.30;;
5646;SDS011;2845;48.626;9.362;2024-01-15T13:50:38;4.63;;;1.30;;
5646;SDS011;2845;48.626;9.362;2024-01-15T13:53:12;3.93;;;1.43;;
5646;SDS011;2845;48.626;9.362;2024-01-15T13:55:46;3.63;;;1.47;;
5646;SDS011;2845;48.626;9.362;2024-01-15T13:58:20;5.27;;;1.67;;
5646;SDS011;2845;48.626;9.362;2024-01-15T14:00:55;4.47;;;1.93;;
5646;SDS011;2845;48.626;9.362;2024-01-15T14:03:31;6.93;;;2.17;;
5646;SDS011;2845;48.626;9.362;2024-01-15T14:06:06;5.33;;;1.97;;
5646;SDS011;2845;48.626;9.362;2024-01-15T14:08:43;3.97;;;1.63;;
5646;SDS011;2845;48.626;9.362;2024-01-15T14:11:17;6.43;;;1.83;;
5646;SDS011;2845;48.626;9.362;2024-01-15T14:13:51;7.60;;;2.00;;
5646;SDS011;2845;48.626;9.362;2024-01-15T14:16:25;5.63;;;1.93;;
5646;SDS011;2845;48.626;9.362;2024-01-15T14:19:00;4.57;;;1.50;;
5646;SDS011;2845;48.626;9.362;2024-01-15T14:21:35;5.87;;;2.00;;
5646;SDS011;2845;48.626;9.362;2024-01-15T14:24:10;5.47;;;2.07;;
5646;SDS011;2845;48.626;9.362;2024-01-15T14:26:45;7.53;;;1.80;;
5646;SDS011;2845;48.626;9.362;2024-01-15T14:29:19;6.33;;;2.33;;
5646;SDS011;2845;48.626;9.362;2024-01-15T14:31:57;7.87;;;2.27;;
5646;SDS011;2845;48.626;9.362;2024-01-15T14:34:32;6.83;;;2.70;;
5646;SDS011;2845;48.626;9.362;2024-01-15T14:37:08;4.53;;;1.87;;
5646;SDS011;2845;48.626;9.362;2024-01-15T14:39:43;7.33;;;2.83;;
5646;SDS011;2845;48.626;9.362;2024-01-15T14:42:17;5.77;;;2.20;;
5646;SDS011;2845;48.626;9.362;2024-01-15T14:44:51;5.70;;;2.13;;
5646;SDS011;2845;48.626;9.362;2024-01-15T14:47:25;7.90;;;2.33;;
5646;SDS011;2845;48.626;9.362;2024-01-15T14:50:01;7.40;;;1.67;;
5646;SDS011;2845;48.626;9.362;2024-01-15T14:52:35;4.37;;;1.60;;
5646;SDS011;2845;48.626;9.362;2024-01-15T14:55:10;7.57;;;2.90;;
5646;SDS011;2845;48.626;9.362;2024-01-15T14:57:44;5.33;;;2.03;;
5646;SDS011;2845;48.626;9.362;2024-01-15T15:00:18;6.20;;;1.97;;
5646;SDS011;2845;48.626;9.362;2024-01-15T15:02:52;5.87;;;1.97;;
5646;SDS011;2845;48.626;9.362;2024-01-15T15:05:28;5.67;;;1.60;;
5646;SDS011;2845;48.626;9.362;2024-01-15T15:08:02;5.10;;;1.87;;
5646;SDS011;2845;48.626;9.362;2024-01-15T15:10:41;4.60;;;1.10;;
5646;SDS011;2845;48.626;9.362;2024-01-15T15:13:15;4.13;;;1.40;;
5646;SDS011;2845;48.626;9.362;2024-01-15T15:16:05;4.80;;;1.67;;
5646;SDS011;2845;48.626;9.362;2024-01-15T15:18:42;4.03;;;1.70;;
5646;SDS011;2845;48.626;9.362;2024-01-15T15:21:17;1.70;;;0.97;;
5646;SDS011;2845;48.626;9.362;2024-01-15T15:23:52;3.57;;;1.43;;
5646;SDS011;2845;48.626;9.362;2024-01-15T15:26:26;5.37;;;1.03;;
5646;SDS011;2845;48.626;9.362;2024-01-15T15:29:00;6.30;;;2.17;;
5646;SDS011;2845;48.626;9.362;2024-01-15T15:31:34;9.60;;;4.00;;
5646;SDS011;2845;48.626;9.362;2024-01-15T15:34:08;7.43;;;3.50;;
5646;SDS011;2845;48.626;9.362;2024-01-15T15:36:44;7.07;;;2.37;;
5646;SDS011;2845;48.626;9.362;2024-01-15T15:39:18;4.77;;;1.80;;
5646;SDS011;2845;48.626;9.362;2024-01-15T15:41:52;4.83;;;1.57;;
5646;SDS011;2845;48.626;9.362;2024-01-15T15:44:26;4.10;;;1.50;;
5646;SDS011;2845;48.626;9.362;2024-01-15T15:47:00;4.37;;;1.73;;
5646;SDS011;2845;48.626;9.362;2024-01-15T15:49:34;5.40;;;2.03;;
5646;SDS011;2845;48.626;9.362;2024-01-15T15:52:10;6.03;;;1.67;;
5646;SDS011;2845;48.626;9.362;2024-01-15T15:54:44;4.87;;;2.00;;
5646;SDS011;2845;48.626;9.362;2024-01-15T15:57:19;5.33;;;1.93;;
5646;SDS011;2845;48.626;9.362;2024-01-15T15:59:53;4.13;;;1.47;;
5646;SDS011;2845;48.626;9.362;2024-01-15T16:02:29;3.17;;;1.50;;